createdAt,value
2018-06-03T00:00:15.965Z,96.00
2018-06-03T00:02:19.557Z,96.00
2018-06-03T00:04:23.267Z,96.20
2018-06-03T00:06:26.776Z,96.30
2018-06-03T00:08:30.347Z,96.30
2018-06-03T00:10:33.849Z,96.40
2018-06-03T00:14:40.544Z,96.60
2018-06-03T00:16:44.036Z,96.60
2018-06-03T00:18:47.576Z,96.60
2018-06-03T00:21:03.948Z,96.60
2018-06-03T00:23:07.537Z,96.50
2018-06-03T00:25:11.032Z,96.60
2018-06-03T00:27:14.557Z,96.60
2018-06-03T00:29:18.066Z,96.60
2018-06-03T00:31:21.605Z,96.80
2018-06-03T00:33:25.115Z,97.00
2018-06-03T00:35:28.804Z,97.10
2018-06-03T00:37:32.268Z,97.20
2018-06-03T00:39:35.764Z,97.30
2018-06-03T00:41:39.247Z,97.30
2018-06-03T00:43:42.740Z,97.30
2018-06-03T00:45:46.356Z,96.90
2018-06-03T00:47:49.895Z,96.80
2018-06-03T00:49:53.471Z,96.70
2018-06-03T00:54:00.144Z,96.90
2018-06-03T00:56:03.674Z,96.90
2018-06-03T00:58:07.148Z,97.10
2018-06-03T01:00:10.680Z,97.20
2018-06-03T01:02:14.176Z,97.40
2018-06-03T01:04:17.681Z,97.60
2018-06-03T01:06:21.219Z,97.70
2018-06-03T01:08:24.708Z,97.70
2018-06-03T01:10:28.299Z,97.70
2018-06-03T01:12:31.807Z,97.90
2018-06-03T01:14:35.343Z,97.90
2018-06-03T01:16:38.943Z,98.20
2018-06-03T01:18:42.401Z,98.10
2018-06-03T01:20:45.899Z,98.10
2018-06-03T01:22:49.421Z,98.20
2018-06-03T01:24:52.918Z,98.00
2018-06-03T01:26:56.417Z,98.10
2018-06-03T01:29:00.019Z,98.10
2018-06-03T01:31:03.568Z,98.30
2018-06-03T01:33:07.096Z,98.40
2018-06-03T01:35:10.617Z,98.50
2018-06-03T01:37:14.083Z,98.80
2018-06-03T01:39:17.680Z,98.50
2018-06-03T01:41:21.286Z,98.50
2018-06-03T01:43:24.795Z,98.60
2018-06-03T01:45:28.315Z,98.70
2018-06-03T01:47:31.836Z,98.90
2018-06-03T01:49:35.315Z,99.00
2018-06-03T01:51:38.863Z,99.30
2018-06-03T01:53:42.459Z,99.40
2018-06-03T01:55:45.980Z,99.40
2018-06-03T01:57:49.545Z,99.40
2018-06-03T01:59:53.033Z,99.40
2018-06-03T02:01:56.523Z,99.60
2018-06-03T02:04:00.049Z,99.80
2018-06-03T02:06:03.580Z,99.90
2018-06-03T02:08:07.244Z,99.90
2018-06-03T02:10:10.791Z,99.90
2018-06-03T02:12:14.380Z,99.90
2018-06-03T02:14:17.936Z,99.90
2018-06-03T02:16:21.413Z,99.90
2018-06-03T02:18:24.909Z,99.90
2018-06-03T02:20:28.415Z,99.90
2018-06-03T02:22:31.979Z,99.90
2018-06-03T02:24:35.534Z,99.90
2018-06-03T02:26:39.052Z,99.90
2018-06-03T02:28:42.516Z,99.90
2018-06-03T02:30:46.147Z,99.90
2018-06-03T02:32:49.647Z,99.90
2018-06-03T02:34:53.232Z,99.90
2018-06-03T02:36:56.849Z,99.90
2018-06-03T02:39:00.341Z,99.90
2018-06-03T02:41:03.889Z,99.20
2018-06-03T02:43:07.428Z,98.80
2018-06-03T02:45:11.055Z,99.10
2018-06-03T02:47:14.586Z,99.70
2018-06-03T02:49:18.060Z,99.80
2018-06-03T02:51:21.553Z,99.90
2018-06-03T02:53:25.083Z,99.90
2018-06-03T02:55:28.557Z,99.90
2018-06-03T02:57:32.157Z,99.90
2018-06-03T02:59:35.637Z,99.90
2018-06-03T03:01:39.270Z,99.90
2018-06-03T03:03:42.790Z,99.90
2018-06-03T03:05:46.260Z,99.90
2018-06-03T03:07:49.863Z,99.90
2018-06-03T03:09:53.367Z,99.90
2018-06-03T03:11:56.867Z,99.90
2018-06-03T03:14:00.465Z,99.90
2018-06-03T03:16:03.949Z,99.90
2018-06-03T03:18:07.505Z,99.90
2018-06-03T03:20:11.013Z,99.90
2018-06-03T03:22:14.505Z,99.90
2018-06-03T03:24:17.991Z,99.90
2018-06-03T03:26:21.548Z,99.90
2018-06-03T03:28:25.380Z,99.90
2018-06-03T03:30:28.859Z,99.90
2018-06-03T03:32:32.384Z,99.90
2018-06-03T03:34:36.004Z,99.90
2018-06-03T03:36:39.473Z,99.90
2018-06-03T03:38:42.965Z,99.90
2018-06-03T03:40:46.440Z,99.90
2018-06-03T03:42:49.970Z,99.90
2018-06-03T03:44:53.471Z,99.90
2018-06-03T03:46:56.962Z,99.80
2018-06-03T03:49:00.469Z,99.60
2018-06-03T03:51:03.998Z,99.40
2018-06-03T03:53:07.583Z,99.50
2018-06-03T03:55:11.114Z,99.40
2018-06-03T03:57:14.715Z,98.90
2018-06-03T04:01:21.437Z,99.30
2018-06-03T04:03:24.903Z,99.40
2018-06-03T04:05:28.843Z,99.40
2018-06-03T04:07:32.425Z,99.50
2018-06-03T04:09:35.938Z,99.60
2018-06-03T04:11:39.427Z,99.80
2018-06-03T04:13:42.908Z,99.80
2018-06-03T04:15:46.447Z,99.80
2018-06-03T04:17:49.953Z,99.90
2018-06-03T04:19:53.427Z,99.90
2018-06-03T04:21:56.915Z,99.90
2018-06-03T04:24:00.452Z,99.90
2018-06-03T04:26:03.946Z,99.90
2018-06-03T04:28:07.456Z,99.90
2018-06-03T04:30:10.949Z,99.90
2018-06-03T04:32:14.431Z,99.90
2018-06-03T04:34:17.917Z,99.90
2018-06-03T04:36:21.399Z,99.90
2018-06-03T04:38:24.894Z,99.90
2018-06-03T04:40:28.405Z,99.90
2018-06-03T04:42:31.895Z,99.90
2018-06-03T04:44:35.347Z,99.90
2018-06-03T04:46:38.980Z,99.90
2018-06-03T04:48:42.574Z,99.90
2018-06-03T04:50:46.084Z,99.90
2018-06-03T04:52:49.725Z,99.90
2018-06-03T04:54:53.225Z,99.90
2018-06-03T04:56:56.808Z,99.90
2018-06-03T04:59:00.387Z,99.90
2018-06-03T05:03:07.328Z,99.80
2018-06-03T05:05:10.856Z,99.70
2018-06-03T05:07:14.376Z,99.60
2018-06-03T05:09:17.884Z,99.60
2018-06-03T05:11:21.378Z,99.30
2018-06-03T05:13:24.983Z,99.30
2018-06-03T05:15:28.516Z,99.20
2018-06-03T05:17:32.003Z,98.90
2018-06-03T05:19:35.607Z,98.70
2018-06-03T05:21:39.052Z,98.60
2018-06-03T05:23:42.565Z,98.60
2018-06-03T05:25:46.147Z,98.60
2018-06-03T05:27:49.719Z,98.50
2018-06-03T05:29:53.222Z,98.50
2018-06-03T05:31:56.699Z,98.40
2018-06-03T05:34:00.356Z,98.30
2018-06-03T05:36:03.852Z,98.40
2018-06-03T05:38:07.334Z,98.20
2018-06-03T05:40:10.819Z,98.20
2018-06-03T05:42:14.485Z,98.30
2018-06-03T05:44:17.996Z,98.30
2018-06-03T05:46:21.487Z,98.00
2018-06-03T05:50:28.599Z,97.70
2018-06-03T05:52:32.162Z,97.60
2018-06-03T05:54:35.649Z,97.30
2018-06-03T05:56:39.118Z,97.10
2018-06-03T05:58:42.614Z,97.20
2018-06-03T06:00:46.114Z,97.00
2018-06-03T06:02:49.620Z,96.80
2018-06-03T06:04:53.099Z,96.80
2018-06-03T06:06:56.590Z,96.70
2018-06-03T06:09:00.303Z,96.60
2018-06-03T06:11:03.792Z,96.30
2018-06-03T06:13:07.316Z,96.20
2018-06-03T06:15:10.855Z,95.80
2018-06-03T06:17:14.696Z,95.70
2018-06-03T06:19:18.193Z,96.00
2018-06-03T06:21:21.792Z,95.50
2018-06-03T06:23:25.284Z,95.30
2018-06-03T06:25:28.862Z,95.20
2018-06-03T06:27:32.380Z,95.50
2018-06-03T06:29:35.892Z,95.30
2018-06-03T06:31:39.398Z,95.40
2018-06-03T06:33:43.023Z,95.00
2018-06-03T06:35:46.624Z,94.90
2018-06-03T06:37:50.124Z,95.20
2018-06-03T06:39:53.647Z,95.00
2018-06-03T06:41:57.320Z,95.10
2018-06-03T06:44:00.828Z,94.60
2018-06-03T06:46:04.367Z,94.70
2018-06-03T06:48:07.863Z,94.50
2018-06-03T06:50:11.349Z,94.70
2018-06-03T06:52:14.904Z,95.00
2018-06-03T06:54:18.463Z,95.10
2018-06-03T06:56:21.939Z,94.20
2018-06-03T06:58:25.448Z,93.70
2018-06-03T07:00:28.970Z,93.90
2018-06-03T07:02:32.577Z,93.70
2018-06-03T07:04:36.100Z,93.00
2018-06-03T07:06:39.678Z,92.60
2018-06-03T07:08:43.191Z,91.70
2018-06-03T07:10:46.731Z,91.80
2018-06-03T07:12:50.274Z,92.10
2018-06-03T07:14:53.823Z,91.80
2018-06-03T07:16:57.391Z,91.80
2018-06-03T07:19:00.940Z,91.70
2018-06-03T07:21:04.447Z,91.50
2018-06-03T07:23:07.979Z,91.50
2018-06-03T07:25:11.497Z,91.30
2018-06-03T07:27:14.987Z,91.30
2018-06-03T07:29:18.500Z,91.00
2018-06-03T07:31:22.000Z,91.10
2018-06-03T07:35:29.072Z,91.00
2018-06-03T07:37:36.331Z,90.90
2018-06-03T07:39:39.872Z,91.10
2018-06-03T07:43:46.644Z,90.80
2018-06-03T07:45:50.164Z,90.80
2018-06-03T07:49:56.818Z,91.10
2018-06-03T07:52:00.378Z,90.60
2018-06-03T07:54:07.137Z,90.90
2018-06-03T07:56:10.721Z,90.80
2018-06-03T07:58:14.201Z,90.20
2018-06-03T08:00:21.857Z,90.20
2018-06-03T08:02:25.420Z,90.40
2018-06-03T08:04:28.952Z,90.20
2018-06-03T08:06:32.476Z,90.00
2018-06-03T08:08:36.402Z,90.00
2018-06-03T08:10:39.916Z,90.00
2018-06-03T08:12:43.430Z,89.20
2018-06-03T08:14:47.138Z,88.90
2018-06-03T08:16:50.660Z,88.40
2018-06-03T08:18:54.268Z,88.70
2018-06-03T08:20:57.739Z,89.00
2018-06-03T08:23:01.263Z,88.70
2018-06-03T08:27:07.893Z,88.30
2018-06-03T08:29:11.490Z,88.90
2018-06-03T08:31:15.058Z,87.50
2018-06-03T08:33:18.607Z,88.30
2018-06-03T08:35:22.117Z,87.90
2018-06-03T08:37:25.612Z,87.60
2018-06-03T08:39:29.124Z,88.50
2018-06-03T08:43:36.683Z,88.80
2018-06-03T08:45:42.336Z,88.00
2018-06-03T08:47:47.959Z,89.20
2018-06-03T08:49:51.760Z,87.90
2018-06-03T08:51:57.972Z,87.90
2018-06-03T08:54:01.538Z,86.40
2018-06-03T08:56:05.117Z,85.40
2018-06-03T08:58:08.597Z,86.20
2018-06-03T09:00:12.114Z,87.00
2018-06-03T09:02:15.630Z,84.80
2018-06-03T09:04:19.192Z,85.30
2018-06-03T09:06:22.675Z,84.60
2018-06-03T09:08:26.171Z,84.80
2018-06-03T09:10:29.737Z,85.00
2018-06-03T09:12:33.304Z,85.00
2018-06-03T09:14:36.813Z,85.60
2018-06-03T09:16:40.395Z,84.60
2018-06-03T09:18:43.885Z,83.70
2018-06-03T09:20:47.376Z,85.30
2018-06-03T09:22:50.899Z,83.50
2018-06-03T09:24:54.487Z,85.10
2018-06-03T09:26:58.003Z,84.40
2018-06-03T09:29:01.603Z,83.40
2018-06-03T09:31:07.310Z,83.00
2018-06-03T09:33:10.835Z,82.60
2018-06-03T09:35:14.411Z,80.20
2018-06-03T09:37:18.055Z,81.90
2018-06-03T09:39:21.608Z,82.10
2018-06-03T09:41:25.091Z,82.50
2018-06-03T09:43:28.651Z,83.70
2018-06-03T09:45:32.168Z,83.30
2018-06-03T09:47:35.715Z,83.40
2018-06-03T09:49:39.228Z,80.70
2018-06-03T09:51:42.841Z,80.80
2018-06-03T09:53:46.313Z,81.60
2018-06-03T09:55:49.851Z,83.30
2018-06-03T09:57:53.322Z,83.30
2018-06-03T09:59:56.848Z,81.50
2018-06-03T10:02:00.355Z,81.30
2018-06-03T10:04:03.882Z,82.10
2018-06-03T10:08:10.650Z,81.10
2018-06-03T10:10:14.318Z,80.90
2018-06-03T10:12:17.847Z,80.20
2018-06-03T10:14:21.348Z,79.80
2018-06-03T10:16:24.916Z,79.70
2018-06-03T10:18:28.460Z,80.80
2018-06-03T10:20:32.077Z,81.10
2018-06-03T10:22:35.557Z,81.30
2018-06-03T10:26:42.448Z,80.10
2018-06-03T10:28:45.975Z,80.90
2018-06-03T10:30:49.472Z,81.20
2018-06-03T10:32:52.991Z,80.40
2018-06-03T10:34:56.491Z,81.00
2018-06-03T10:36:59.988Z,79.70
2018-06-03T10:39:03.729Z,79.70
2018-06-03T10:41:08.045Z,77.80
2018-06-03T10:43:11.549Z,78.00
2018-06-03T10:45:15.200Z,75.40
2018-06-03T10:47:18.687Z,75.00
2018-06-03T10:49:22.188Z,74.00
2018-06-03T10:51:25.742Z,72.20
2018-06-03T10:53:29.307Z,74.30
2018-06-03T10:55:32.848Z,74.60
2018-06-03T10:57:36.437Z,74.80
2018-06-03T10:59:39.936Z,73.00
2018-06-03T11:01:43.457Z,73.00
2018-06-03T11:03:46.930Z,71.70
2018-06-03T11:05:50.553Z,74.80
2018-06-03T11:07:54.088Z,75.30
2018-06-03T11:09:57.596Z,74.30
2018-06-03T11:12:01.115Z,74.40
2018-06-03T11:14:04.660Z,73.60
2018-06-03T11:16:08.221Z,72.20
2018-06-03T11:18:11.743Z,73.00
2018-06-03T11:20:15.787Z,73.80
2018-06-03T11:22:19.428Z,72.50
2018-06-03T11:24:22.912Z,72.10
2018-06-03T11:26:26.450Z,73.50
2018-06-03T11:28:29.982Z,74.70
2018-06-03T11:30:33.515Z,73.20
2018-06-03T11:32:37.024Z,72.30
2018-06-03T11:34:40.578Z,71.50
2018-06-03T11:36:44.099Z,72.00
2018-06-03T11:38:47.615Z,69.70
2018-06-03T11:40:51.192Z,69.50
2018-06-03T11:42:54.723Z,68.40
2018-06-03T11:44:58.213Z,70.70
2018-06-03T11:47:01.717Z,70.70
2018-06-03T11:49:05.273Z,68.00
2018-06-03T11:51:08.856Z,68.90
2018-06-03T11:53:12.454Z,67.50
2018-06-03T11:55:16.056Z,68.10
2018-06-03T11:57:19.651Z,68.70
2018-06-03T11:59:34.273Z,67.80
2018-06-03T12:01:37.818Z,65.30
2018-06-03T12:03:41.356Z,65.50
2018-06-03T12:05:44.908Z,65.20
2018-06-03T12:07:48.404Z,66.50
2018-06-03T12:09:52.009Z,66.20
2018-06-03T12:11:55.515Z,66.80
2018-06-03T12:13:58.995Z,65.20
2018-06-03T12:16:02.533Z,62.70
2018-06-03T12:18:06.051Z,64.20
2018-06-03T12:20:09.564Z,63.40
2018-06-03T12:22:13.118Z,65.60
2018-06-03T12:26:19.925Z,62.10
2018-06-03T12:28:23.484Z,61.70
2018-06-03T12:30:27.001Z,61.50
2018-06-03T12:32:30.596Z,62.90
2018-06-03T12:34:34.124Z,63.80
2018-06-03T12:36:37.652Z,63.20
2018-06-03T12:38:41.187Z,64.60
2018-06-03T12:40:44.676Z,65.60
2018-06-03T12:42:48.237Z,65.30
2018-06-03T12:44:51.790Z,64.10
2018-06-03T12:46:55.305Z,63.50
2018-06-03T12:48:58.844Z,64.40
2018-06-03T12:51:02.359Z,63.40
2018-06-03T12:53:06.153Z,63.90
2018-06-03T12:55:09.711Z,64.00
2018-06-03T12:57:13.239Z,64.20
2018-06-03T12:59:16.771Z,64.00
2018-06-03T13:01:20.291Z,64.80
2018-06-03T13:03:23.955Z,64.20
2018-06-03T13:05:27.474Z,65.00
2018-06-03T13:07:30.998Z,65.50
2018-06-03T13:09:34.495Z,64.90
2018-06-03T13:11:38.039Z,64.80
2018-06-03T13:13:41.677Z,64.60
2018-06-03T13:15:45.202Z,62.50
2018-06-03T13:17:48.774Z,62.80
2018-06-03T13:19:52.268Z,62.80
2018-06-03T13:21:55.844Z,64.20
2018-06-03T13:23:59.337Z,64.00
2018-06-03T13:26:02.863Z,62.60
2018-06-03T13:28:06.369Z,64.10
2018-06-03T13:30:09.864Z,62.50
2018-06-03T13:32:13.387Z,63.60
2018-06-03T13:36:20.033Z,62.00
2018-06-03T13:38:23.569Z,60.80
2018-06-03T13:40:27.132Z,61.90
2018-06-03T13:42:30.664Z,62.50
2018-06-03T13:44:34.220Z,62.20
2018-06-03T13:46:37.767Z,63.80
2018-06-03T13:48:41.259Z,62.40
2018-06-03T13:50:44.774Z,62.40
2018-06-03T13:52:48.380Z,62.10
2018-06-03T13:54:51.861Z,62.00
2018-06-03T13:56:55.437Z,62.90
2018-06-03T13:58:58.972Z,62.30
2018-06-03T14:01:02.586Z,62.70
2018-06-03T14:03:06.089Z,63.70
2018-06-03T14:05:09.592Z,62.00
2018-06-03T14:07:13.193Z,62.40
2018-06-03T14:09:16.812Z,61.60
2018-06-03T14:11:20.303Z,62.00
2018-06-03T14:13:23.800Z,61.50
2018-06-03T14:15:27.304Z,61.30
2018-06-03T14:17:30.835Z,62.20
2018-06-03T14:19:34.356Z,61.70
2018-06-03T14:21:37.855Z,62.00
2018-06-03T14:23:41.356Z,60.10
2018-06-03T14:25:44.863Z,61.20
2018-06-03T14:29:51.954Z,60.50
2018-06-03T14:31:55.432Z,59.80
2018-06-03T14:33:58.963Z,60.60
2018-06-03T14:36:02.460Z,60.00
2018-06-03T14:38:05.976Z,59.80
2018-06-03T14:40:09.552Z,59.30
2018-06-03T14:42:13.074Z,61.10
2018-06-03T14:44:16.574Z,60.50
2018-06-03T14:46:20.136Z,60.40
2018-06-03T14:48:23.699Z,59.90
2018-06-03T14:50:27.244Z,60.10
2018-06-03T14:52:30.747Z,60.00
2018-06-03T14:54:34.248Z,59.10
2018-06-03T14:56:37.898Z,59.10
2018-06-03T14:58:41.395Z,58.90
2018-06-03T15:00:44.891Z,59.10
2018-06-03T15:02:48.375Z,59.70
2018-06-03T15:04:51.884Z,59.40
2018-06-03T15:06:55.394Z,58.70
2018-06-03T15:08:59.210Z,58.30
2018-06-03T15:11:02.722Z,58.70
2018-06-03T15:13:06.324Z,58.20
2018-06-03T15:15:09.804Z,59.60
2018-06-03T15:17:13.353Z,59.30
2018-06-03T15:19:17.039Z,60.70
2018-06-03T15:25:27.049Z,58.40
2018-06-03T15:27:30.577Z,59.40
2018-06-03T15:29:34.116Z,58.90
2018-06-03T15:31:37.628Z,57.70
2018-06-03T15:33:41.246Z,57.10
2018-06-03T15:35:45.415Z,58.50
2018-06-03T15:37:49.020Z,57.80
2018-06-03T15:39:52.530Z,58.40
2018-06-03T15:42:01.176Z,58.90
2018-06-03T15:46:07.914Z,57.20
2018-06-03T15:48:11.461Z,57.80
2018-06-03T15:50:14.968Z,58.90
2018-06-03T15:52:18.478Z,57.80
2018-06-03T15:54:22.111Z,56.90
2018-06-03T15:56:25.648Z,57.20
2018-06-03T15:58:29.166Z,57.30
2018-06-03T16:00:32.672Z,57.30
2018-06-03T16:02:36.166Z,57.40
2018-06-03T16:04:39.837Z,58.40
2018-06-03T16:06:43.405Z,57.90
2018-06-03T16:08:46.945Z,59.00
2018-06-03T16:10:50.459Z,58.90
2018-06-03T16:12:54.051Z,57.50
2018-06-03T16:14:57.570Z,56.80
2018-06-03T16:17:01.110Z,55.40
2018-06-03T16:19:04.827Z,55.10
2018-06-03T16:21:08.485Z,55.80
2018-06-03T16:23:11.982Z,56.10
2018-06-03T16:25:15.487Z,55.30
2018-06-03T16:27:19.041Z,55.50
2018-06-03T16:29:22.618Z,54.10
2018-06-03T16:31:26.173Z,53.80
2018-06-03T16:33:29.733Z,53.90
2018-06-03T16:35:33.257Z,54.60
2018-06-03T16:37:37.007Z,54.40
2018-06-03T16:39:40.517Z,53.80
2018-06-03T16:41:44.173Z,52.70
2018-06-03T16:43:47.752Z,52.50
2018-06-03T16:45:51.243Z,53.80
2018-06-03T16:47:54.723Z,53.60
2018-06-03T16:49:58.244Z,54.50
2018-06-03T16:52:01.982Z,54.80
2018-06-03T16:54:08.790Z,56.20
2018-06-03T16:56:12.299Z,56.00
2018-06-03T16:58:15.838Z,56.70
2018-06-03T17:00:19.356Z,57.00
2018-06-03T17:02:22.896Z,57.10
2018-06-03T17:06:32.049Z,57.40
2018-06-03T17:08:35.576Z,58.40
2018-06-03T17:10:39.204Z,58.00
2018-06-03T17:12:42.741Z,58.10
2018-06-03T17:14:46.434Z,58.40
2018-06-03T17:16:49.901Z,58.30
2018-06-03T17:18:53.512Z,59.50
2018-06-03T17:20:57.126Z,60.10
2018-06-03T17:23:00.620Z,60.10
2018-06-03T17:27:07.485Z,61.20
2018-06-03T17:29:11.034Z,60.80
2018-06-03T17:31:14.572Z,61.00
2018-06-03T17:33:18.195Z,61.20
2018-06-03T17:35:24.027Z,61.90
2018-06-03T17:37:30.424Z,62.20
2018-06-03T17:39:34.943Z,62.50
2018-06-03T17:41:38.432Z,62.30
2018-06-03T17:43:41.947Z,62.80
2018-06-03T17:45:45.468Z,63.10
2018-06-03T17:47:48.970Z,62.90
2018-06-03T17:49:52.659Z,63.50
2018-06-03T17:51:56.147Z,64.30
2018-06-03T17:53:59.684Z,64.80
2018-06-03T17:56:03.191Z,64.90
2018-06-03T17:58:06.684Z,64.90
2018-06-03T18:00:10.272Z,65.60
2018-06-03T18:02:13.800Z,66.40
2018-06-03T18:04:17.367Z,66.50
2018-06-03T18:06:21.036Z,66.70
2018-06-03T18:08:24.580Z,67.30
2018-06-03T18:12:31.281Z,67.30
2018-06-03T18:14:34.784Z,67.70
2018-06-03T18:16:38.325Z,68.10
2018-06-03T18:18:41.856Z,68.40
2018-06-03T18:20:45.424Z,68.20
2018-06-03T18:22:48.905Z,68.00
2018-06-03T18:24:52.423Z,68.20
2018-06-03T18:26:55.937Z,68.20
2018-06-03T18:28:59.420Z,68.30
2018-06-03T18:33:06.159Z,68.60
2018-06-03T18:35:09.812Z,69.40
2018-06-03T18:37:13.325Z,69.80
2018-06-03T18:39:16.893Z,70.10
2018-06-03T18:41:20.420Z,70.30
2018-06-03T18:43:23.931Z,71.00
2018-06-03T18:45:27.459Z,71.60
2018-06-03T18:47:30.986Z,72.80
2018-06-03T18:51:37.697Z,74.10
2018-06-03T18:53:41.256Z,75.10
2018-06-03T18:55:44.788Z,76.40
2018-06-03T18:57:48.348Z,76.30
2018-06-03T18:59:51.921Z,77.10
2018-06-03T19:01:55.436Z,77.40
2018-06-03T19:03:58.965Z,77.30
2018-06-03T19:06:02.496Z,78.40
2018-06-03T19:08:06.145Z,78.60
2018-06-03T19:10:09.696Z,80.60
2018-06-03T19:12:13.304Z,81.20
2018-06-03T19:14:16.831Z,82.50
2018-06-03T19:16:20.653Z,83.00
2018-06-03T19:18:24.146Z,83.70
2018-06-03T19:20:27.666Z,84.30
2018-06-03T19:22:31.139Z,84.40
2018-06-03T19:24:34.655Z,84.90
2018-06-03T19:26:38.227Z,85.30
2018-06-03T19:28:41.796Z,85.60
2018-06-03T19:30:45.392Z,84.70
2018-06-03T19:32:48.914Z,84.60
2018-06-03T19:34:52.484Z,84.60
2018-06-03T19:36:56.008Z,85.10
2018-06-03T19:38:59.583Z,86.10
2018-06-03T19:41:03.111Z,86.20
2018-06-03T19:43:06.636Z,86.50
2018-06-03T19:45:10.184Z,87.00
2018-06-03T19:47:13.697Z,87.60
2018-06-03T19:49:17.200Z,88.10
2018-06-03T19:51:20.748Z,88.50
2018-06-03T19:53:24.217Z,89.10
2018-06-03T19:55:27.867Z,89.40
2018-06-03T19:57:31.408Z,90.00
2018-06-03T19:59:34.943Z,90.10
2018-06-03T20:01:38.442Z,90.30
2018-06-03T20:03:42.106Z,90.70
2018-06-03T20:05:45.596Z,90.70
2018-06-03T20:07:49.138Z,90.90
2018-06-03T20:09:52.750Z,91.20
2018-06-03T20:14:31.403Z,91.20
2018-06-03T20:16:35.053Z,91.60
2018-06-03T20:18:38.655Z,91.40
2018-06-03T20:22:45.676Z,91.50
2018-06-03T20:24:51.724Z,91.40
2018-06-03T20:26:55.401Z,91.50
2018-06-03T20:28:59.096Z,91.50
2018-06-03T20:31:02.883Z,91.10
2018-06-03T20:33:06.567Z,90.90
2018-06-03T20:35:10.151Z,91.20
2018-06-03T20:37:13.749Z,91.30
2018-06-03T20:39:17.347Z,91.50
2018-06-03T20:41:21.226Z,91.60
2018-06-03T20:43:24.931Z,91.80
2018-06-03T20:45:28.545Z,92.30
2018-06-03T20:49:35.550Z,92.30
2018-06-03T20:51:39.155Z,92.20
2018-06-03T20:53:42.909Z,92.20
2018-06-03T20:55:46.673Z,92.30
2018-06-03T20:57:50.363Z,92.20
2018-06-03T20:59:53.998Z,91.80
2018-06-03T21:01:57.607Z,91.60
2018-06-03T21:04:02.726Z,91.70
2018-06-03T21:06:06.377Z,91.70
2018-06-03T21:08:10.075Z,91.80
2018-06-03T21:10:14.081Z,91.90
2018-06-03T21:12:17.803Z,92.10
2018-06-03T21:14:21.453Z,92.50
2018-06-03T21:16:25.160Z,92.70
2018-06-03T21:18:28.771Z,92.90
2018-06-03T21:22:35.734Z,93.40
2018-06-03T21:24:39.343Z,93.60
2018-06-03T21:26:42.940Z,94.00
2018-06-03T21:28:46.661Z,93.90
2018-06-03T21:30:50.277Z,94.00
2018-06-03T21:32:53.965Z,93.90
2018-06-03T21:34:57.606Z,94.10
2018-06-03T21:37:01.377Z,94.30
2018-06-03T21:39:07.658Z,94.50
2018-06-03T21:41:11.308Z,94.70
2018-06-03T21:43:14.929Z,94.90
2018-06-03T21:45:18.661Z,95.00
2018-06-03T21:47:22.284Z,95.10
2018-06-03T21:49:25.851Z,95.10
2018-06-03T21:51:29.468Z,95.20
2018-06-03T21:53:33.132Z,95.20
2018-06-03T21:55:36.728Z,95.30
2018-06-03T21:57:40.397Z,95.30
2018-06-03T22:01:47.402Z,95.50
2018-06-03T22:03:51.108Z,95.50
2018-06-03T22:05:54.774Z,95.40
2018-06-03T22:07:58.578Z,95.40
2018-06-03T22:10:02.273Z,95.50
2018-06-03T22:12:06.140Z,94.60
2018-06-03T22:14:09.932Z,94.30
2018-06-03T22:16:14.613Z,94.20
2018-06-03T22:18:18.287Z,94.30
2018-06-03T22:20:21.934Z,94.30
2018-06-03T22:22:25.521Z,94.50
2018-06-03T22:24:29.167Z,94.70
2018-06-03T22:26:32.777Z,95.30
2018-06-03T22:28:36.537Z,95.20
2018-06-03T22:30:40.226Z,95.30
2018-06-03T22:32:43.889Z,95.50
2018-06-03T22:34:47.583Z,95.90
2018-06-03T22:36:51.301Z,96.10
2018-06-03T22:38:54.949Z,96.00
2018-06-03T22:40:58.508Z,96.00
2018-06-03T22:43:02.244Z,96.30
2018-06-03T22:45:05.906Z,96.30
2018-06-03T22:47:09.698Z,96.30
2018-06-03T22:49:13.272Z,96.30
2018-06-03T22:51:16.973Z,96.40
2018-06-03T22:53:20.605Z,96.60
2018-06-03T22:55:24.248Z,96.80
2018-06-03T22:57:45.431Z,97.00
2018-06-03T22:59:49.096Z,97.10
2018-06-03T23:01:52.693Z,96.90
2018-06-03T23:03:56.330Z,96.60
2018-06-03T23:08:03.293Z,95.90
2018-06-03T23:10:07.068Z,96.00
2018-06-03T23:12:10.708Z,95.70
2018-06-03T23:14:14.292Z,95.80
2018-06-03T23:16:17.859Z,95.90
2018-06-03T23:18:21.618Z,96.00
2018-06-03T23:20:25.276Z,96.00
2018-06-03T23:22:28.912Z,96.20
2018-06-03T23:24:32.534Z,96.20
2018-06-03T23:26:36.136Z,96.40
2018-06-03T23:28:39.756Z,96.50
2018-06-03T23:30:43.477Z,96.60
2018-06-03T23:32:47.095Z,96.70
2018-06-03T23:34:50.837Z,96.90
2018-06-03T23:36:54.445Z,97.10
2018-06-03T23:38:58.061Z,97.10
2018-06-03T23:41:01.616Z,97.20
2018-06-03T23:43:05.412Z,97.30
2018-06-03T23:47:12.244Z,97.50
2018-06-03T23:49:15.922Z,97.60
2018-06-03T23:51:19.467Z,97.60
2018-06-03T23:53:23.133Z,97.70
2018-06-03T23:55:26.691Z,97.70
2018-06-03T23:57:30.416Z,97.90
2018-06-03T23:59:34.069Z,98.00
